Time;durP1;ratioP1;P1;durP2;ratioP2;P2;SDS_P1;SDS_P2;PMS_P1;PMS_P2;Temp;Humidity;BMP_temperature;BMP_pressure;BME280_temperature;BME280_humidity;BME280_pressure;Samples;Min_cycle;Max_cycle;Signal;HPM_P1;HPM_P2
2022/06/14 00:01:57;;;;;;;17.02;11.90;;;;;;;15.89;100.00;94937.81;5083325;28;20538;-70
2022/06/14 00:04:24;;;;;;;21.73;11.43;;;;;;;15.80;100.00;94935.69;5062096;28;20079;-70
2022/06/14 00:06:51;;;;;;;18.58;12.25;;;;;;;15.83;100.00;94940.41;5083342;28;20162;-70
2022/06/14 00:09:19;;;;;;;13.70;10.95;;;;;;;15.85;100.00;94940.94;5080810;28;20094;-70
2022/06/14 00:11:46;;;;;;;18.80;10.68;;;;;;;15.79;100.00;94935.94;5077441;28;20043;-69
2022/06/14 00:14:13;;;;;;;20.85;10.23;;;;;;;15.69;100.00;94939.31;5077142;28;20036;-69
2022/06/14 00:16:40;;;;;;;13.13;10.38;;;;;;;15.71;100.00;94942.47;5075397;28;20047;-69
2022/06/14 00:19:08;;;;;;;19.98;10.10;;;;;;;15.62;100.00;94938.78;5075934;28;20600;-70
2022/06/14 00:21:37;;;;;;;14.18;11.25;;;;;;;15.58;100.00;94949.00;5064733;28;20048;-69
2022/06/14 00:24:05;;;;;;;18.90;11.55;;;;;;;15.37;100.00;94942.91;5081305;28;20054;-69
2022/06/14 00:26:35;;;;;;;16.35;12.20;;;;;;;15.37;100.00;94937.66;5095347;28;20058;-69
2022/06/14 00:29:03;;;;;;;15.88;11.05;;;;;;;15.26;100.00;94925.56;5078003;28;20040;-69
2022/06/14 00:31:30;;;;;;;16.33;11.68;;;;;;;15.29;100.00;94935.56;5065187;28;20095;-70
2022/06/14 00:33:57;;;;;;;15.10;11.10;;;;;;;15.19;100.00;94927.63;5077623;28;20239;-69
2022/06/14 00:36:31;;;;;;;15.75;10.73;;;;;;;15.19;100.00;94940.75;5079006;28;20056;-70
2022/06/14 00:39:01;;;;;;;18.52;12.40;;;;;;;15.09;100.00;94941.50;5060846;28;20040;-70
2022/06/14 00:41:41;;;;;;;20.55;12.35;;;;;;;15.09;100.00;94949.38;5063235;28;20048;-70
2022/06/14 00:44:14;;;;;;;17.13;11.23;;;;;;;15.02;100.00;94940.97;5060052;28;20055;-69
2022/06/14 00:47:04;;;;;;;15.65;11.93;;;;;;;15.07;100.00;94938.34;5079556;28;20044;-70
2022/06/14 00:49:35;;;;;;;18.08;11.52;;;;;;;15.03;100.00;94943.28;5074316;28;20040;-70
2022/06/14 00:52:16;;;;;;;17.85;11.80;;;;;;;15.05;100.00;94943.84;5076898;28;20047;-70
2022/06/14 00:54:47;;;;;;;18.83;12.65;;;;;;;15.02;100.00;94939.13;5082747;28;20102;-70
2022/06/14 00:57:23;;;;;;;17.17;11.13;;;;;;;15.01;100.00;94942.78;5078888;28;20186;-70
2022/06/14 01:00:03;;;;;;;25.92;13.10;;;;;;;14.99;100.00;94938.84;5064024;28;20048;-70
2022/06/14 01:02:35;;;;;;;14.52;11.13;;;;;;;14.97;100.00;94938.31;5087030;28;20759;-69
2022/06/14 01:05:08;;;;;;;17.25;11.48;;;;;;;14.95;100.00;94941.19;5075320;28;20050;-70
2022/06/14 01:07:41;;;;;;;13.73;10.73;;;;;;;14.90;100.00;94943.78;5078980;28;20058;-70
2022/06/14 01:10:16;;;;;;;15.30;11.27;;;;;;;14.94;100.00;94944.84;5072876;28;20033;-70
2022/06/14 01:12:48;;;;;;;16.65;11.32;;;;;;;14.87;100.00;94936.41;5077977;28;20528;-70
2022/06/14 01:15:31;;;;;;;17.25;10.88;;;;;;;14.85;100.00;94935.88;5078192;28;20047;-70
2022/06/14 01:18:09;;;;;;;14.73;11.60;;;;;;;14.85;100.00;94935.88;5077271;28;20036;-70
2022/06/14 01:20:36;;;;;;;17.90;11.65;;;;;;;14.87;100.00;94929.34;5077727;28;20036;-70
2022/06/14 01:23:06;;;;;;;14.98;11.70;;;;;;;14.88;100.00;94938.00;5078951;28;20042;-70
2022/06/14 01:25:36;;;;;;;20.25;11.38;;;;;;;14.91;100.00;94938.28;5076660;28;20036;-70
2022/06/14 01:28:05;;;;;;;15.60;10.25;;;;;;;14.86;100.00;94933.00;5076702;28;20154;-70
2022/06/14 01:30:36;;;;;;;19.45;11.27;;;;;;;14.83;100.00;94936.13;5078413;28;20028;-70
2022/06/14 01:33:08;;;;;;;14.05;10.55;;;;;;;14.83;100.00;94938.75;5085693;28;20055;-70
2022/06/14 01:35:38;;;;;;;14.75;10.10;;;;;;;14.79;100.00;94936.91;5081502;28;20131;-70
2022/06/14 01:38:09;;;;;;;19.63;10.43;;;;;;;14.78;100.00;94940.56;5081662;28;20040;-70
2022/06/14 01:41:03;;;;;;;15.45;11.18;;;;;;;14.80;100.00;94930.59;5079458;28;20044;-70
2022/06/14 01:43:49;;;;;;;19.30;10.52;;;;;;;14.78;100.00;94930.06;5080654;28;20044;-70
2022/06/14 01:46:35;;;;;;;16.77;10.73;;;;;;;14.70;100.00;94932.13;5078280;28;20047;-70
2022/06/14 01:52:54;;;;;;;27.35;11.20;;;;;;;14.63;100.00;94942.06;5078806;28;20083;-70
2022/06/14 01:55:36;;;;;;;18.90;11.43;;;;;;;14.59;100.00;94940.22;4979706;28;20038;-70
2022/06/14 01:58:12;;;;;;;19.88;11.60;;;;;;;14.61;100.00;94933.66;4980550;28;20439;-70
2022/06/14 02:01:03;;;;;;;14.52;11.75;;;;;;;14.57;100.00;94932.56;5030938;28;20122;-70
2022/06/14 02:06:38;;;;;;;15.63;11.73;;;;;;;14.57;100.00;94940.44;5081048;28;20051;-70
2022/06/14 02:09:11;;;;;;;15.07;11.02;;;;;;;14.58;100.00;94942.00;5076748;28;20036;-70
2022/06/14 02:11:38;;;;;;;16.13;12.18;;;;;;;14.57;100.00;94937.81;5080291;28;20723;-70
2022/06/14 02:14:29;;;;;;;15.38;11.60;;;;;;;14.62;100.00;94945.72;5059776;28;20057;-70
2022/06/14 02:17:07;;;;;;;15.80;10.82;;;;;;;14.63;100.00;94949.91;5081048;28;20055;-70
2022/06/14 02:19:40;;;;;;;16.15;11.45;;;;;;;14.58;100.00;94951.72;5076930;28;20043;-70
2022/06/14 02:22:25;;;;;;;17.27;12.55;;;;;;;14.65;100.00;94953.06;5082929;28;20055;-70
2022/06/14 02:24:53;;;;;;;;;;;;;;;14.60;100.00;94955.66;5081159;28;20040;-70
2022/06/14 02:27:20;;;;;;;15.50;11.13;;;;;;;14.48;100.00;94949.81;5068191;28;20339;-70
2022/06/14 02:29:58;;;;;;;16.77;11.25;;;;;;;14.48;100.00;94941.94;5079246;28;20032;-70
2022/06/14 02:32:47;;;;;;;16.05;9.57;;;;;;;14.42;100.00;94958.66;5049382;28;20854;-70
2022/06/14 02:35:24;;;;;;;15.18;10.80;;;;;;;14.25;100.00;94954.34;5080579;28;20048;-70
2022/06/14 02:38:15;;;;;;;19.20;10.13;;;;;;;14.23;100.00;94971.38;5084130;28;20046;-69
2022/06/14 02:40:52;;;;;;;13.20;10.27;;;;;;;14.18;100.00;94973.94;5076649;28;20154;-69
2022/06/14 02:43:43;;;;;;;18.98;11.07;;;;;;;14.17;100.00;94970.53;5093149;28;20046;-69
2022/06/14 02:46:22;;;;;;;15.55;10.25;;;;;;;14.12;100.00;94980.97;5075647;28;20056;-68
2022/06/14 02:49:07;;;;;;;15.40;10.70;;;;;;;14.02;100.00;94981.66;5090113;28;20097;-68
2022/06/14 02:51:47;;;;;;;13.35;9.88;;;;;;;14.00;100.00;94982.94;5083751;28;20040;-70
2022/06/14 02:54:26;;;;;;;14.70;10.25;;;;;;;14.03;100.00;94987.69;5086059;28;20058;-70
2022/06/14 02:57:12;;;;;;;16.23;10.10;;;;;;;13.99;100.00;94986.59;5079361;28;20494;-70
2022/06/14 02:59:52;;;;;;;16.08;11.00;;;;;;;13.95;100.00;94981.88;5082170;28;20467;-70
2022/06/14 03:02:33;;;;;;;17.88;11.40;;;;;;;13.92;100.00;94981.56;5079395;28;20074;-70
2022/06/14 03:05:15;;;;;;;16.63;10.27;;;;;;;13.90;100.00;94984.44;5087444;28;20032;-70
2022/06/14 03:07:58;;;;;;;12.85;10.23;;;;;;;13.84;100.00;94969.69;5077994;28;20047;-70
2022/06/14 03:10:49;;;;;;;18.25;10.95;;;;;;;13.89;100.00;94980.22;5079789;28;20716;-70
2022/06/14 03:13:26;;;;;;;14.32;10.80;;;;;;;13.94;100.00;94980.28;5066113;28;20081;-70
2022/06/14 03:16:01;;;;;;;13.65;11.00;;;;;;;13.95;100.00;94984.50;5078039;28;20044;-70
2022/06/14 03:18:31;;;;;;;18.08;10.95;;;;;;;14.06;100.00;94989.81;5075872;28;20582;-70
2022/06/14 03:21:06;;;;;;;15.15;11.27;;;;;;;14.13;100.00;94998.25;5079811;28;20028;-70
2022/06/14 03:23:45;;;;;;;14.65;10.90;;;;;;;14.17;100.00;94991.50;5075237;28;20287;-70
2022/06/14 03:26:24;;;;;;;17.70;12.95;;;;;;;14.24;100.00;94989.47;5060392;28;20043;-70
2022/06/14 03:29:15;;;;;;;15.77;10.52;;;;;;;14.36;100.00;94986.66;5057910;28;20105;-70
2022/06/14 03:31:48;;;;;;;19.65;10.93;;;;;;;14.44;100.00;94977.53;5078387;28;20043;-70
2022/06/14 03:34:40;;;;;;;14.82;10.98;;;;;;;14.60;100.00;94989.72;5075814;28;20046;-70
2022/06/14 03:37:09;;;;;;;14.60;10.57;;;;;;;14.70;100.00;94987.19;5079523;28;20051;-70
2022/06/14 03:39:43;;;;;;;14.93;10.63;;;;;;;14.77;100.00;94980.94;5058899;28;20044;-70
2022/06/14 03:42:12;;;;;;;;;;;;;;;14.92;100.00;94988.88;5078283;28;20044;-69
2022/06/14 03:44:40;;;;;;;21.17;10.68;;;;;;;15.01;100.00;94989.97;5075867;28;19924;-70
2022/06/14 03:47:24;;;;;;;16.45;11.55;;;;;;;15.14;100.00;94995.81;5073797;28;20040;-70
2022/06/14 03:49:56;;;;;;;14.90;11.40;;;;;;;15.24;100.00;94985.38;5076585;28;21167;-70
2022/06/14 03:52:26;;;;;;;16.95;11.15;;;;;;;15.43;100.00;94988.31;5076603;28;20178;-70
2022/06/14 03:55:11;;;;;;;20.60;12.48;;;;;;;15.56;100.00;94987.06;5076517;28;20130;-71
2022/06/14 03:57:40;;;;;;;;;;;;;;;15.73;100.00;94998.13;5081082;28;20048;-71
2022/06/14 04:00:47;;;;;;;18.42;11.82;;;;;;;15.88;100.00;94994.78;5076718;28;20132;-71
2022/06/14 04:15:57;;;;;;;14.10;10.70;;;;;;;17.52;100.00;95009.63;5131505;27;20634;-63
2022/06/14 04:19:03;;;;;;;17.67;11.60;;;;;;;17.64;100.00;95018.00;5116560;27;21088;-63
2022/06/14 04:21:54;;;;;;;16.98;11.85;;;;;;;17.64;100.00;95007.47;5115399;27;20616;-62
2022/06/14 04:24:30;;;;;;;14.73;10.38;;;;;;;17.64;100.00;95015.38;5116155;27;20077;-62
2022/06/14 04:27:33;;;;;;;19.00;11.57;;;;;;;17.69;100.00;95011.94;5120114;27;20693;-63
2022/06/14 04:30:06;;;;;;;20.88;11.32;;;;;;;17.71;100.00;95018.50;5051313;28;20044;-64
2022/06/14 04:32:56;;;;;;;17.13;11.93;;;;;;;17.76;100.00;95021.09;5104927;27;20043;-63
2022/06/14 04:35:39;;;;;;;15.32;10.68;;;;;;;17.80;100.00;95031.09;5074710;27;20540;-63
2022/06/14 04:38:12;;;;;;;15.02;10.27;;;;;;;17.81;100.00;95032.66;5112940;27;20043;-63
2022/06/14 04:40:51;;;;;;;15.20;10.80;;;;;;;17.95;100.00;95038.94;5105507;27;20063;-63
2022/06/14 04:43:26;;;;;;;15.18;10.73;;;;;;;18.09;100.00;95033.88;5098481;27;20135;-63
2022/06/14 04:46:09;;;;;;;19.58;11.45;;;;;;;18.15;100.00;95028.31;5111069;27;20043;-64
2022/06/14 04:48:47;;;;;;;20.90;10.77;;;;;;;18.24;100.00;95040.88;5113889;27;20126;-63
2022/06/14 04:51:22;;;;;;;14.48;10.75;;;;;;;18.20;100.00;95035.38;5106337;27;20047;-63
2022/06/14 04:53:58;;;;;;;13.40;9.93;;;;;;;18.08;100.00;95033.09;5111026;27;20035;-63
2022/06/14 04:56:32;;;;;;;16.77;11.02;;;;;;;17.92;100.00;95034.25;5109959;27;20048;-63
2022/06/14 04:59:07;;;;;;;22.48;11.93;;;;;;;17.94;100.00;95042.66;5109080;27;21495;-63
2022/06/14 05:02:13;;;;;;;20.42;11.50;;;;;;;17.65;100.00;95039.88;5109477;27;20039;-63
2022/06/14 05:04:46;;;;;;;14.05;11.25;;;;;;;17.57;100.00;95038.56;5093602;27;20038;-62
2022/06/14 05:07:21;;;;;;;21.70;12.32;;;;;;;17.80;100.00;95046.91;5108890;27;20048;-63
2022/06/14 05:09:55;;;;;;;22.38;11.90;;;;;;;17.91;100.00;95053.72;5107386;27;20077;-62
2022/06/14 05:12:25;;;;;;;;;;;;;;;18.03;100.00;95056.84;5110537;27;20035;-63
2022/06/14 05:15:22;;;;;;;16.95;11.93;;;;;;;18.13;100.00;95046.25;5102611;27;19926;-63
2022/06/14 05:17:57;;;;;;;17.50;12.77;;;;;;;18.38;100.00;95048.97;5096150;27;20050;-63
2022/06/14 05:20:35;;;;;;;14.90;11.82;;;;;;;18.50;100.00;95044.91;5092627;27;20489;-63
2022/06/14 05:23:04;;;;;;;15.18;11.75;;;;;;;18.42;100.00;95040.25;5093668;27;20097;-64
2022/06/14 05:26:03;;;;;;;16.23;12.35;;;;;;;18.55;100.00;95054.66;5100691;27;20079;-63
2022/06/14 05:28:48;;;;;;;17.98;12.05;;;;;;;18.54;100.00;95051.22;5093007;27;20051;-63
2022/06/14 05:31:39;;;;;;;17.20;12.13;;;;;;;18.62;100.00;95056.97;5097233;27;20047;-63
2022/06/14 05:34:21;;;;;;;17.30;11.98;;;;;;;18.72;100.00;95056.88;5089452;27;20046;-64
2022/06/14 05:37:05;;;;;;;20.23;11.15;;;;;;;18.96;100.00;95066.75;5096801;27;20040;-64
2022/06/14 05:40:08;;;;;;;13.30;10.45;;;;;;;19.23;100.00;95064.38;5098164;27;20073;-64
2022/06/14 05:42:42;;;;;;;17.02;11.77;;;;;;;19.38;100.00;95062.66;5075441;27;20047;-62
2022/06/14 05:45:15;;;;;;;15.95;11.73;;;;;;;19.56;100.00;95064.56;5093247;27;20047;-63
2022/06/14 05:47:49;;;;;;;17.50;11.20;;;;;;;19.76;100.00;95073.34;5091325;27;20642;-64
2022/06/14 05:50:28;;;;;;;20.85;11.07;;;;;;;19.53;100.00;95075.69;5094321;27;20052;-64
2022/06/14 05:53:04;;;;;;;16.05;12.00;;;;;;;19.79;100.00;95072.75;5101713;27;20047;-64
2022/06/14 05:55:51;;;;;;;14.77;11.40;;;;;;;19.85;100.00;95076.94;5096143;27;20130;-64
2022/06/14 05:58:30;;;;;;;18.48;11.73;;;;;;;19.92;100.00;95072.09;5095457;27;20039;-64
2022/06/14 06:01:03;;;;;;;18.02;10.75;;;;;;;19.93;100.00;95084.22;5093697;27;20051;-64
2022/06/14 06:03:49;;;;;;;17.75;11.43;;;;;;;20.04;100.00;95080.41;5094716;27;20039;-64
2022/06/14 06:06:23;;;;;;;14.27;10.00;;;;;;;20.11;100.00;95085.31;5096821;27;20633;-63
2022/06/14 06:08:51;;;;;;;;;;;;;;;20.14;100.00;95083.97;5095759;27;20043;-64
2022/06/14 06:11:27;;;;;;;14.02;10.43;;;;;;;20.26;100.00;95092.28;5095745;27;19930;-63
2022/06/14 06:14:09;;;;;;;11.60;9.73;;;;;;;20.47;100.00;95090.13;5102130;27;20145;-64
2022/06/14 06:17:04;;;;;;;12.32;9.82;;;;;;;20.59;100.00;95094.97;5094028;27;20048;-64
2022/06/14 06:19:59;;;;;;;15.90;9.15;;;;;;;20.73;100.00;95089.78;5066135;28;20093;-64
2022/06/14 06:22:32;;;;;;;13.48;9.48;;;;;;;20.72;100.00;95094.25;5096843;27;20047;-64
2022/06/14 06:25:05;;;;;;;12.10;8.98;;;;;;;20.57;100.00;95086.53;5095640;27;20040;-64
2022/06/14 06:27:39;;;;;;;11.98;8.90;;;;;;;20.55;100.00;95094.00;5095477;27;20044;-64
2022/06/14 06:30:06;;;;;;;;;;;;;;;20.39;100.00;95096.84;5092733;27;20048;-64
2022/06/14 06:32:33;;;;;;;12.18;8.88;;;;;;;20.26;100.00;95097.56;5094215;27;19987;-64
2022/06/14 06:35:03;;;;;;;16.08;9.18;;;;;;;20.32;100.00;95101.69;5094172;27;20036;-64
2022/06/14 06:38:04;;;;;;;18.75;8.98;;;;;;;20.41;100.00;95099.97;5092352;27;20132;-63
2022/06/14 06:40:32;;;;;;;13.38;9.63;;;;;;;20.54;100.00;95097.69;5088158;27;20036;-64
2022/06/14 06:43:06;;;;;;;16.23;10.45;;;;;;;20.53;100.00;95096.13;5095425;27;20039;-63
2022/06/14 06:45:38;;;;;;;14.07;9.75;;;;;;;20.66;100.00;95095.44;5089073;27;20048;-64
2022/06/14 06:48:29;;;;;;;11.70;9.65;;;;;;;20.89;100.00;95103.56;5097189;27;20989;-63
2022/06/14 06:51:02;;;;;;;12.85;8.07;;;;;;;20.88;100.00;95101.97;5093002;27;20759;-64
2022/06/14 06:53:47;;;;;;;13.98;7.07;;;;;;;21.04;100.00;95105.16;5094983;27;20649;-63
2022/06/14 06:56:19;;;;;;;10.55;7.15;;;;;;;21.02;100.00;95102.81;5093791;27;20525;-63
2022/06/14 06:59:27;;;;;;;11.35;7.28;;;;;;;21.04;100.00;95095.34;5099581;27;20048;-63
2022/06/14 07:01:59;;;;;;;11.00;8.32;;;;;;;21.12;100.00;95107.94;5098176;27;20437;-64
2022/06/14 07:07:26;;;;;;;12.77;7.82;;;;;;;21.01;100.00;95106.53;5096202;27;20526;-63
2022/06/14 07:09:58;;;;;;;9.18;6.97;;;;;;;21.02;100.00;95116.06;5097004;27;20139;-63
2022/06/14 07:12:41;;;;;;;15.10;7.05;;;;;;;20.89;100.00;95108.84;5103719;27;20049;-64
2022/06/14 07:15:26;;;;;;;9.73;7.55;;;;;;;21.05;100.00;95112.81;5094934;27;20047;-64
2022/06/14 07:18:06;;;;;;;11.27;7.90;;;;;;;21.00;100.00;95115.56;5091552;27;20048;-64
2022/06/14 07:20:44;;;;;;;10.65;7.80;;;;;;;21.04;100.00;95111.25;5095915;27;20043;-64
2022/06/14 07:23:43;;;;;;;9.65;8.45;;;;;;;21.02;100.00;95118.69;5097923;27;20127;-64
2022/06/14 07:26:13;;;;;;;9.30;8.05;;;;;;;21.08;100.00;95117.53;5091686;27;20043;-64
2022/06/14 07:29:16;;;;;;;16.98;8.95;;;;;;;21.11;100.00;95103.72;5106525;27;20043;-64
2022/06/14 07:32:04;;;;;;;13.20;8.63;;;;;;;21.17;100.00;95110.47;5090508;27;20070;-64
2022/06/14 07:34:32;;;;;;;11.65;8.65;;;;;;;21.35;100.00;95116.00;5093490;27;21444;-64
2022/06/14 07:37:05;;;;;;;13.35;8.30;;;;;;;21.65;100.00;95116.59;5103046;27;20039;-64
2022/06/14 07:39:56;;;;;;;9.45;7.00;;;;;;;21.89;100.00;95114.50;5098784;27;20043;-64
2022/06/14 07:42:49;;;;;;;7.97;6.25;;;;;;;21.98;100.00;95127.09;5090755;27;20055;-64
2022/06/14 07:45:21;;;;;;;10.40;7.05;;;;;;;21.73;100.00;95121.19;5106334;27;20044;-64
2022/06/14 07:48:02;;;;;;;8.23;7.10;;;;;;;21.80;100.00;95126.88;5094515;27;20039;-64
2022/06/14 07:50:50;;;;;;;8.65;7.25;;;;;;;21.83;100.00;95128.94;5092930;28;20043;-64
2022/06/14 07:53:46;;;;;;;7.20;6.35;;;;;;;22.05;100.00;95122.94;5103339;27;20043;-65
2022/06/14 07:56:19;;;;;;;10.68;7.00;;;;;;;22.26;100.00;95128.66;5101181;27;20492;-64
2022/06/14 07:58:58;;;;;;;10.93;7.32;;;;;;;22.42;100.00;95120.34;5091774;27;20876;-64
2022/06/14 08:01:51;;;;;;;9.50;6.75;;;;;;;22.74;100.00;95126.56;5094218;28;20545;-64
2022/06/14 08:04:43;;;;;;;11.95;7.78;;;;;;;23.02;100.00;95128.00;5092121;28;20056;-66
2022/06/14 08:07:13;;;;;;;11.52;7.65;;;;;;;23.12;100.00;95131.53;5097185;28;20044;-65
2022/06/14 08:09:43;;;;;;;9.35;7.85;;;;;;;23.08;100.00;95121.53;5097399;28;20040;-64
2022/06/14 08:12:40;;;;;;;10.60;8.65;;;;;;;22.74;100.00;95115.94;5089269;28;20085;-64
2022/06/14 08:15:12;;;;;;;8.93;7.07;;;;;;;22.65;99.35;95119.31;5092459;28;20048;-62
2022/06/14 08:17:59;;;;;;;8.02;6.75;;;;;;;22.63;100.00;95121.47;5100080;28;20047;-63
2022/06/14 08:20:36;;;;;;;8.43;6.63;;;;;;;22.68;100.00;95131.97;5093922;28;20039;-64
2022/06/14 08:23:10;;;;;;;8.10;6.10;;;;;;;22.82;100.00;95128.50;5096550;28;20496;-64
2022/06/14 08:25:44;;;;;;;7.25;6.07;;;;;;;22.89;100.00;95119.03;5089988;28;20036;-63
2022/06/14 08:28:22;;;;;;;7.90;6.10;;;;;;;22.94;97.72;95115.47;5092283;28;20525;-64
2022/06/14 08:31:04;;;;;;;6.88;5.80;;;;;;;22.89;94.85;95119.03;5091774;28;20521;-64
2022/06/14 08:33:40;;;;;;;19.10;6.68;;;;;;;23.00;97.53;95113.47;5092697;28;20043;-65
2022/06/14 08:36:12;;;;;;;12.48;7.75;;;;;;;23.24;98.10;95102.53;5096713;28;20038;-65
2022/06/14 08:38:49;;;;;;;8.13;7.28;;;;;;;23.39;95.47;95109.34;5094761;28;20038;-65
2022/06/14 08:41:45;;;;;;;7.68;6.88;;;;;;;23.77;93.68;95104.34;5095180;28;20051;-64
2022/06/14 08:44:16;;;;;;;8.00;6.72;;;;;;;23.95;93.03;95107.06;5092471;28;20055;-64
2022/06/14 08:46:55;;;;;;;7.00;6.10;;;;;;;24.19;90.10;95104.78;5088370;28;20797;-64
2022/06/14 08:49:42;;;;;;;11.43;6.25;;;;;;;24.67;88.82;95105.00;5094372;28;20052;-66
2022/06/14 08:52:24;;;;;;;7.90;6.28;;;;;;;25.14;87.34;95105.13;5097337;27;20151;-65
2022/06/14 08:55:10;;;;;;;6.65;4.80;;;;;;;25.08;75.88;95112.47;5098386;27;20785;-64
2022/06/14 08:58:08;;;;;;;5.88;4.65;;;;;;;25.19;72.65;95102.25;5098601;27;20039;-65
2022/06/14 09:01:15;;;;;;;5.32;4.05;;;;;;;25.13;72.09;95103.53;5098434;27;20461;-64
2022/06/14 09:04:07;;;;;;;6.15;4.32;;;;;;;25.35;68.64;95100.72;5098273;27;20074;-63
2022/06/14 09:07:12;;;;;;;6.38;4.63;;;;;;;25.45;69.78;95088.91;5097716;27;20047;-64
2022/06/14 09:10:00;;;;;;;7.80;4.63;;;;;;;25.27;72.97;95093.50;5096414;27;20487;-64
2022/06/14 09:12:53;;;;;;;5.32;4.68;;;;;;;25.37;72.63;95082.50;5097202;27;20043;-64
2022/06/14 09:15:45;;;;;;;5.57;4.05;;;;;;;25.67;71.46;95079.88;5102949;27;20035;-64
2022/06/14 09:18:41;;;;;;;5.78;3.90;;;;;;;25.80;66.28;95093.31;5097327;27;20055;-62
2022/06/14 09:21:30;;;;;;;4.32;3.75;;;;;;;26.04;65.65;95104.19;5094531;27;20048;-63
2022/06/14 09:24:12;;;;;;;6.25;4.18;;;;;;;26.36;68.06;95091.25;5095684;27;20052;-64
2022/06/14 09:27:20;;;;;;;4.07;3.45;;;;;;;25.98;71.76;95097.47;5100126;27;20047;-64
2022/06/14 09:29:56;;;;;;;5.72;4.40;;;;;;;25.81;72.12;95086.88;5094310;27;20046;-65
2022/06/14 09:33:09;;;;;;;7.93;5.13;;;;;;;25.64;72.67;95083.19;5100781;27;20069;-63
2022/06/14 09:35:57;;;;;;;6.22;5.03;;;;;;;25.57;73.22;95090.91;5095885;27;20036;-64
2022/06/14 09:38:39;;;;;;;6.85;4.65;;;;;;;25.64;73.47;95082.38;5098541;27;20121;-65
2022/06/14 09:41:38;;;;;;;6.53;4.22;;;;;;;25.66;73.77;95078.31;5092385;27;20054;-65
2022/06/14 09:44:21;;;;;;;6.68;4.65;;;;;;;25.72;75.49;95082.34;5088472;27;20032;-66
2022/06/14 09:46:50;;;;;;;6.22;4.82;;;;;;;25.93;74.21;95087.78;5102251;27;20050;-67
2022/06/14 09:49:53;;;;;;;6.65;5.20;;;;;;;26.17;74.89;95085.59;5102047;27;20052;-66
2022/06/14 09:52:44;;;;;;;10.48;5.90;;;;;;;26.24;73.60;95091.22;5096426;27;20528;-64
2022/06/14 09:55:23;;;;;;;4.88;4.38;;;;;;;26.34;72.22;95080.13;5092622;27;20047;-63
2022/06/14 09:58:06;;;;;;;5.35;4.53;;;;;;;26.07;72.21;95098.22;5099441;27;20047;-63
2022/06/14 10:01:18;;;;;;;6.65;4.18;;;;;;;25.86;73.08;95081.38;5095318;27;20516;-65
2022/06/14 10:04:06;;;;;;;8.25;5.13;;;;;;;25.68;74.05;95064.66;5036176;28;20037;-64
2022/06/14 10:07:12;;;;;;;7.22;5.72;;;;;;;25.09;77.94;95079.41;5094318;27;20655;-63
2022/06/14 10:09:48;;;;;;;7.15;4.53;;;;;;;24.34;77.73;95068.16;5101018;27;20047;-63
2022/06/14 10:12:18;;;;;;;5.30;3.30;;;;;;;23.78;74.00;95074.00;5098965;27;20130;-64
2022/06/14 10:15:30;;;;;;;5.70;3.00;;;;;;;23.06;72.37;95070.56;5101755;27;20047;-64
2022/06/14 10:18:08;;;;;;;4.70;2.75;;;;;;;22.63;71.55;95062.28;5099924;27;20069;-68
2022/06/14 10:20:42;;;;;;;9.10;3.50;;;;;;;22.27;74.74;95071.06;5107942;27;20047;-62
2022/06/14 10:23:34;;;;;;;6.57;2.65;;;;;;;21.86;76.11;95067.38;5101910;27;20462;-61
2022/06/14 10:29:13;;;;;;;5.88;3.25;;;;;;;21.01;78.46;95090.63;5109737;27;20100;-62
2022/06/14 10:32:04;;;;;;;4.25;3.20;;;;;;;20.88;80.03;95083.44;5101893;27;20048;-63
2022/06/14 10:34:37;;;;;;;3.42;3.13;;;;;;;20.69;80.49;95078.19;5107866;27;20628;-63
2022/06/14 10:37:26;;;;;;;8.07;3.28;;;;;;;20.57;80.66;95070.66;5105819;27;20042;-62
2022/06/14 10:39:59;;;;;;;5.50;3.05;;;;;;;20.57;82.51;95071.44;5097276;27;20047;-63
2022/06/14 10:42:38;;;;;;;5.05;3.20;;;;;;;20.48;84.50;95067.09;5091757;28;20140;-64
2022/06/14 10:45:18;;;;;;;4.57;3.05;;;;;;;20.38;84.16;95082.06;5097179;27;20413;-64
2022/06/14 10:48:17;;;;;;;6.70;3.13;;;;;;;20.20;83.62;95093.41;5096029;27;20055;-64
2022/06/14 10:51:05;;;;;;;7.03;3.72;;;;;;;20.16;85.19;95092.41;5096636;27;20040;-64
2022/06/14 10:53:32;;;;;;;12.63;3.40;;;;;;;20.24;85.47;95094.44;5100042;27;20047;-64
2022/06/14 10:56:36;;;;;;;3.75;3.22;;;;;;;20.23;85.67;95090.19;5098596;27;20040;-63
2022/06/14 10:59:25;;;;;;;6.60;3.17;;;;;;;20.24;86.22;95094.44;5099434;27;20053;-63
2022/06/14 11:02:27;;;;;;;5.70;3.80;;;;;;;20.33;87.10;95091.91;5099432;27;20179;-64
2022/06/14 11:05:14;;;;;;;7.30;3.97;;;;;;;20.44;88.13;95088.84;5096993;27;20257;-64
2022/06/14 11:07:55;;;;;;;5.25;3.85;;;;;;;20.56;86.79;95090.25;5101966;27;20039;-63
2022/06/14 11:10:31;;;;;;;4.70;3.72;;;;;;;20.57;86.90;95091.84;5097847;27;20051;-62
2022/06/14 11:13:24;;;;;;;6.13;3.90;;;;;;;20.61;86.30;95088.34;5096029;27;20886;-64
2022/06/14 11:18:25;;;;;;;7.35;3.75;;;;;;;20.67;86.28;95081.13;5105230;27;20120;-67
2022/06/14 11:21:00;;;;;;;5.35;3.30;;;;;;;20.77;86.51;95091.53;5090991;28;20497;-69
2022/06/14 11:23:41;;;;;;;7.05;4.28;;;;;;;20.83;85.74;95094.91;5074834;28;20060;-69
2022/06/14 11:26:17;;;;;;;4.15;3.05;;;;;;;20.97;86.66;95087.00;5094881;28;20032;-69
2022/06/14 11:29:11;;;;;;;6.78;5.63;;;;;;;21.12;87.25;95088.59;5093912;28;20133;-70
2022/06/14 11:31:52;;;;;;;5.95;4.10;;;;;;;21.36;85.67;95096.41;5090199;28;20067;-69
2022/06/14 11:34:26;;;;;;;4.25;3.58;;;;;;;21.55;84.14;95094.50;5094070;28;20439;-69
2022/06/14 11:37:34;;;;;;;5.68;3.65;;;;;;;21.65;82.02;95088.22;5095077;28;20042;-69
2022/06/14 11:40:09;;;;;;;6.30;3.53;;;;;;;21.84;81.25;95077.50;5064094;28;20136;-68
2022/06/14 11:42:36;;;;;;;9.02;3.90;;;;;;;22.19;79.35;95087.69;5095783;28;20136;-69
2022/06/14 11:45:17;;;;;;;5.10;3.97;;;;;;;22.66;77.26;95086.38;5094421;28;20070;-70
2022/06/14 11:48:03;;;;;;;4.90;3.10;;;;;;;23.44;74.49;95086.09;5094353;28;20043;-71
2022/06/14 11:50:42;;;;;;;3.95;3.08;;;;;;;24.38;70.78;95098.38;5094691;28;20043;-70
2022/06/14 11:53:25;;;;;;;4.70;2.85;;;;;;;24.99;68.63;95093.88;5096620;28;20047;-70
2022/06/14 11:56:07;;;;;;;7.90;3.40;;;;;;;25.36;66.93;95080.94;5093961;28;20036;-70
2022/06/14 11:59:14;;;;;;;5.45;3.50;;;;;;;26.03;64.46;95089.28;5096959;28;20425;-69
2022/06/14 12:02:05;;;;;;;3.78;3.10;;;;;;;26.09;62.77;95101.34;5080337;28;20436;-81
2022/06/14 12:04:38;;;;;;;4.78;2.70;;;;;;;26.12;63.48;95091.91;5093932;28;20144;-80
2022/06/14 12:07:28;;;;;;;4.18;3.63;;;;;;;26.10;65.48;95086.88;5078267;28;20071;-81
2022/06/14 12:10:17;;;;;;;4.40;3.53;;;;;;;26.33;63.35;95090.03;5101438;28;20073;-80
2022/06/14 12:12:59;;;;;;;5.22;2.58;;;;;;;26.52;63.30;95086.94;5091892;28;20043;-80
2022/06/14 12:15:58;;;;;;;4.95;3.20;;;;;;;26.66;60.79;95080.53;5094198;28;20043;-79
2022/06/14 12:18:30;;;;;;;4.00;3.35;;;;;;;26.96;60.08;95072.44;5083972;28;20144;-68
2022/06/14 12:21:28;;;;;;;5.75;2.92;;;;;;;26.86;59.58;95076.28;5102421;28;20035;-71
2022/06/14 12:24:02;;;;;;;9.60;8.65;;;;;;;27.34;60.67;95071.44;5072006;28;20035;-70
2022/06/14 12:26:47;;;;;;;6.05;3.90;;;;;;;27.21;59.95;95073.28;5098477;28;20052;-71
2022/06/14 12:29:30;;;;;;;6.65;3.13;;;;;;;26.54;58.72;95072.44;5080571;28;20173;-71
2022/06/14 12:32:35;;;;;;;3.03;2.60;;;;;;;26.06;56.78;95074.53;5064650;28;20042;-72
2022/06/14 12:35:10;;;;;;;4.22;2.70;;;;;;;25.46;61.16;95063.00;5080018;28;20150;-71
2022/06/14 12:37:50;;;;;;;3.33;2.60;;;;;;;25.18;61.36;95074.06;5087862;28;20031;-71
2022/06/14 12:40:38;;;;;;;12.60;3.17;;;;;;;25.11;61.20;95068.44;5080793;28;20043;-70
2022/06/14 12:43:20;;;;;;;6.55;2.78;;;;;;;25.69;60.67;95066.22;5081753;28;20040;-69
2022/06/14 12:45:57;;;;;;;3.95;2.75;;;;;;;25.64;59.92;95061.06;5061580;28;20044;-69
2022/06/14 12:48:45;;;;;;;3.03;2.38;;;;;;;25.79;61.00;95065.09;5082439;28;20700;-83
2022/06/14 12:51:43;;;;;;;4.72;3.35;;;;;;;25.67;61.58;95063.88;5086640;28;20066;-82
2022/06/14 12:54:33;;;;;;;3.35;2.67;;;;;;;25.34;61.30;95067.13;5079636;28;20074;-80